sensor_id;sensor_type;location;lat;lon;timestamp;P1;durP1;ratioP1;P2;durP2;ratioP2
60494;SDS011;46342;49.046;11.920;2023-06-10T00:01:50;4.82;;;3.53;;
60494;SDS011;46342;49.046;11.920;2023-06-10T00:04:16;4.50;;;3.25;;
60494;SDS011;46342;49.046;11.920;2023-06-10T00:06:45;4.60;;;3.33;;
60494;SDS011;46342;49.046;11.920;2023-06-10T00:09:14;4.65;;;3.05;;
60494;SDS011;46342;49.046;11.920;2023-06-10T00:11:40;4.57;;;2.88;;
60494;SDS011;46342;49.046;11.920;2023-06-10T00:14:06;4.10;;;3.33;;
60494;SDS011;46342;49.046;11.920;2023-06-10T00:16:32;7.30;;;3.58;;
60494;SDS011;46342;49.046;11.920;2023-06-10T00:18:59;4.90;;;3.03;;
60494;SDS011;46342;49.046;11.920;2023-06-10T00:21:28;3.92;;;3.53;;
60494;SDS011;46342;49.046;11.920;2023-06-10T00:23:56;4.00;;;3.47;;
60494;SDS011;46342;49.046;11.920;2023-06-10T00:26:22;4.35;;;3.45;;
60494;SDS011;46342;49.046;11.920;2023-06-10T00:28:48;4.38;;;3.20;;
60494;SDS011;46342;49.046;11.920;2023-06-10T00:31:14;4.00;;;3.35;;
60494;SDS011;46342;49.046;11.920;2023-06-10T00:33:40;4.22;;;3.50;;
60494;SDS011;46342;49.046;11.920;2023-06-10T00:36:06;4.47;;;3.20;;
60494;SDS011;46342;49.046;11.920;2023-06-10T00:38:31;3.70;;;2.80;;
60494;SDS011;46342;49.046;11.920;2023-06-10T00:40:58;3.25;;;2.92;;
60494;SDS011;46342;49.046;11.920;2023-06-10T00:43:23;3.80;;;3.30;;
60494;SDS011;46342;49.046;11.920;2023-06-10T00:45:49;6.13;;;2.88;;
60494;SDS011;46342;49.046;11.920;2023-06-10T00:48:15;4.03;;;3.08;;
60494;SDS011;46342;49.046;11.920;2023-06-10T00:50:41;4.53;;;3.28;;
60494;SDS011;46342;49.046;11.920;2023-06-10T00:53:06;4.53;;;3.13;;
60494;SDS011;46342;49.046;11.920;2023-06-10T00:55:33;3.88;;;2.78;;
60494;SDS011;46342;49.046;11.920;2023-06-10T00:57:59;3.97;;;3.38;;
60494;SDS011;46342;49.046;11.920;2023-06-10T01:00:25;4.05;;;3.15;;
60494;SDS011;46342;49.046;11.920;2023-06-10T01:02:51;4.30;;;3.25;;
60494;SDS011;46342;49.046;11.920;2023-06-10T01:05:17;5.60;;;3.63;;
60494;SDS011;46342;49.046;11.920;2023-06-10T01:07:56;3.63;;;2.95;;
60494;SDS011;46342;49.046;11.920;2023-06-10T01:10:59;6.28;;;3.20;;
60494;SDS011;46342;49.046;11.920;2023-06-10T01:13:28;4.95;;;3.58;;
60494;SDS011;46342;49.046;11.920;2023-06-10T01:15:58;5.47;;;2.95;;
60494;SDS011;46342;49.046;11.920;2023-06-10T01:18:29;3.75;;;3.25;;
60494;SDS011;46342;49.046;11.920;2023-06-10T01:20:55;4.55;;;3.72;;
60494;SDS011;46342;49.046;11.920;2023-06-10T01:23:21;2.80;;;2.25;;
60494;SDS011;46342;49.046;11.920;2023-06-10T01:26:09;5.38;;;3.50;;
60494;SDS011;46342;49.046;11.920;2023-06-10T01:31:07;3.85;;;3.35;;
60494;SDS011;46342;49.046;11.920;2023-06-10T01:33:47;3.60;;;2.95;;
60494;SDS011;46342;49.046;11.920;2023-06-10T01:36:16;4.43;;;3.58;;
60494;SDS011;46342;49.046;11.920;2023-06-10T01:38:44;4.80;;;3.00;;
60494;SDS011;46342;49.046;11.920;2023-06-10T01:41:11;4.10;;;3.08;;
60494;SDS011;46342;49.046;11.920;2023-06-10T01:46:04;5.25;;;3.10;;
60494;SDS011;46342;49.046;11.920;2023-06-10T01:48:31;4.20;;;3.17;;
60494;SDS011;46342;49.046;11.920;2023-06-10T01:50:57;5.88;;;4.10;;
60494;SDS011;46342;49.046;11.920;2023-06-10T01:53:22;5.72;;;4.20;;
60494;SDS011;46342;49.046;11.920;2023-06-10T01:55:48;5.20;;;3.45;;
60494;SDS011;46342;49.046;11.920;2023-06-10T01:58:14;3.85;;;3.15;;
60494;SDS011;46342;49.046;11.920;2023-06-10T02:00:40;5.38;;;3.33;;
60494;SDS011;46342;49.046;11.920;2023-06-10T02:03:05;4.43;;;3.17;;
60494;SDS011;46342;49.046;11.920;2023-06-10T02:05:31;5.32;;;3.78;;
60494;SDS011;46342;49.046;11.920;2023-06-10T02:07:57;6.03;;;3.70;;
60494;SDS011;46342;49.046;11.920;2023-06-10T02:10:23;4.80;;;3.58;;
60494;SDS011;46342;49.046;11.920;2023-06-10T02:12:48;4.32;;;3.60;;
60494;SDS011;46342;49.046;11.920;2023-06-10T02:15:14;4.32;;;3.50;;
60494;SDS011;46342;49.046;11.920;2023-06-10T02:17:40;5.85;;;3.97;;
60494;SDS011;46342;49.046;11.920;2023-06-10T02:20:05;5.10;;;3.50;;
60494;SDS011;46342;49.046;11.920;2023-06-10T02:22:32;5.07;;;4.03;;
60494;SDS011;46342;49.046;11.920;2023-06-10T02:24:58;4.63;;;3.67;;
60494;SDS011;46342;49.046;11.920;2023-06-10T02:27:24;4.90;;;3.42;;
60494;SDS011;46342;49.046;11.920;2023-06-10T02:29:50;8.07;;;4.05;;
60494;SDS011;46342;49.046;11.920;2023-06-10T02:32:15;6.90;;;4.38;;
60494;SDS011;46342;49.046;11.920;2023-06-10T02:34:42;4.25;;;3.70;;
60494;SDS011;46342;49.046;11.920;2023-06-10T02:37:08;7.15;;;4.10;;
60494;SDS011;46342;49.046;11.920;2023-06-10T02:39:34;4.75;;;3.65;;
60494;SDS011;46342;49.046;11.920;2023-06-10T02:41:59;6.15;;;4.10;;
60494;SDS011;46342;49.046;11.920;2023-06-10T02:44:25;4.53;;;3.58;;
60494;SDS011;46342;49.046;11.920;2023-06-10T02:46:51;5.40;;;3.65;;
60494;SDS011;46342;49.046;11.920;2023-06-10T02:49:16;4.97;;;4.07;;
60494;SDS011;46342;49.046;11.920;2023-06-10T02:51:42;4.82;;;3.92;;
60494;SDS011;46342;49.046;11.920;2023-06-10T02:54:07;5.30;;;4.20;;
60494;SDS011;46342;49.046;11.920;2023-06-10T02:56:33;4.80;;;3.92;;
60494;SDS011;46342;49.046;11.920;2023-06-10T02:58:59;8.82;;;4.45;;
60494;SDS011;46342;49.046;11.920;2023-06-10T03:01:25;5.85;;;3.97;;
60494;SDS011;46342;49.046;11.920;2023-06-10T03:03:51;5.82;;;4.28;;
60494;SDS011;46342;49.046;11.920;2023-06-10T03:06:17;7.93;;;4.47;;
60494;SDS011;46342;49.046;11.920;2023-06-10T03:08:43;5.65;;;4.28;;
60494;SDS011;46342;49.046;11.920;2023-06-10T03:11:10;4.88;;;4.05;;
60494;SDS011;46342;49.046;11.920;2023-06-10T03:13:36;8.20;;;4.25;;
60494;SDS011;46342;49.046;11.920;2023-06-10T03:16:03;5.70;;;3.80;;
60494;SDS011;46342;49.046;11.920;2023-06-10T03:18:29;5.57;;;4.22;;
60494;SDS011;46342;49.046;11.920;2023-06-10T03:20:55;5.38;;;3.88;;
60494;SDS011;46342;49.046;11.920;2023-06-10T03:23:21;5.47;;;4.28;;
60494;SDS011;46342;49.046;11.920;2023-06-10T03:25:47;5.07;;;3.72;;
60494;SDS011;46342;49.046;11.920;2023-06-10T03:28:13;5.60;;;4.20;;
60494;SDS011;46342;49.046;11.920;2023-06-10T03:30:39;5.30;;;4.00;;
60494;SDS011;46342;49.046;11.920;2023-06-10T03:33:04;5.53;;;4.18;;
60494;SDS011;46342;49.046;11.920;2023-06-10T03:35:30;4.68;;;3.85;;
60494;SDS011;46342;49.046;11.920;2023-06-10T03:37:57;4.95;;;4.05;;
60494;SDS011;46342;49.046;11.920;2023-06-10T03:40:23;7.57;;;3.97;;
60494;SDS011;46342;49.046;11.920;2023-06-10T03:42:48;4.63;;;3.83;;
60494;SDS011;46342;49.046;11.920;2023-06-10T03:45:14;4.35;;;3.53;;
60494;SDS011;46342;49.046;11.920;2023-06-10T03:47:40;6.55;;;4.22;;
60494;SDS011;46342;49.046;11.920;2023-06-10T03:50:06;5.00;;;4.05;;
60494;SDS011;46342;49.046;11.920;2023-06-10T03:52:33;6.22;;;4.45;;
60494;SDS011;46342;49.046;11.920;2023-06-10T03:54:59;5.63;;;4.07;;
60494;SDS011;46342;49.046;11.920;2023-06-10T03:57:24;4.80;;;3.83;;
60494;SDS011;46342;49.046;11.920;2023-06-10T03:59:50;5.90;;;4.43;;
60494;SDS011;46342;49.046;11.920;2023-06-10T04:02:16;6.07;;;4.28;;
60494;SDS011;46342;49.046;11.920;2023-06-10T04:04:41;6.35;;;4.35;;
60494;SDS011;46342;49.046;11.920;2023-06-10T04:07:07;6.47;;;4.45;;
60494;SDS011;46342;49.046;11.920;2023-06-10T04:09:33;7.05;;;4.38;;
60494;SDS011;46342;49.046;11.920;2023-06-10T04:12:00;8.32;;;4.63;;
60494;SDS011;46342;49.046;11.920;2023-06-10T04:14:26;6.38;;;4.45;;
60494;SDS011;46342;49.046;11.920;2023-06-10T04:16:52;6.25;;;3.90;;
60494;SDS011;46342;49.046;11.920;2023-06-10T04:19:18;5.35;;;3.97;;
60494;SDS011;46342;49.046;11.920;2023-06-10T04:21:45;4.82;;;3.60;;
60494;SDS011;46342;49.046;11.920;2023-06-10T04:24:10;5.03;;;3.88;;
60494;SDS011;46342;49.046;11.920;2023-06-10T04:26:36;7.15;;;4.38;;
60494;SDS011;46342;49.046;11.920;2023-06-10T04:29:02;5.38;;;4.15;;
60494;SDS011;46342;49.046;11.920;2023-06-10T04:31:27;3.75;;;3.28;;
60494;SDS011;46342;49.046;11.920;2023-06-10T04:33:53;4.72;;;3.95;;
60494;SDS011;46342;49.046;11.920;2023-06-10T04:36:19;3.95;;;3.17;;
60494;SDS011;46342;49.046;11.920;2023-06-10T04:38:45;4.85;;;3.92;;
60494;SDS011;46342;49.046;11.920;2023-06-10T04:41:11;4.47;;;3.63;;
60494;SDS011;46342;49.046;11.920;2023-06-10T04:43:37;5.35;;;4.15;;
60494;SDS011;46342;49.046;11.920;2023-06-10T04:46:03;3.92;;;3.53;;
60494;SDS011;46342;49.046;11.920;2023-06-10T04:48:29;5.18;;;4.00;;
60494;SDS011;46342;49.046;11.920;2023-06-10T04:50:55;5.00;;;3.67;;
60494;SDS011;46342;49.046;11.920;2023-06-10T04:53:21;5.20;;;4.30;;
60494;SDS011;46342;49.046;11.920;2023-06-10T04:55:47;6.68;;;4.03;;
60494;SDS011;46342;49.046;11.920;2023-06-10T04:58:13;4.88;;;3.83;;
60494;SDS011;46342;49.046;11.920;2023-06-10T05:00:39;8.02;;;4.18;;
60494;SDS011;46342;49.046;11.920;2023-06-10T05:03:05;5.65;;;4.47;;
60494;SDS011;46342;49.046;11.920;2023-06-10T05:05:30;5.45;;;4.25;;
60494;SDS011;46342;49.046;11.920;2023-06-10T05:07:56;5.30;;;4.03;;
60494;SDS011;46342;49.046;11.920;2023-06-10T05:10:22;4.88;;;3.85;;
60494;SDS011;46342;49.046;11.920;2023-06-10T05:12:47;6.45;;;4.18;;
60494;SDS011;46342;49.046;11.920;2023-06-10T05:15:13;5.05;;;4.03;;
60494;SDS011;46342;49.046;11.920;2023-06-10T05:17:39;5.28;;;4.35;;
60494;SDS011;46342;49.046;11.920;2023-06-10T05:20:04;5.15;;;4.15;;
60494;SDS011;46342;49.046;11.920;2023-06-10T05:22:31;6.00;;;4.20;;
60494;SDS011;46342;49.046;11.920;2023-06-10T05:24:56;4.47;;;3.45;;
60494;SDS011;46342;49.046;11.920;2023-06-10T05:27:22;4.90;;;3.67;;
60494;SDS011;46342;49.046;11.920;2023-06-10T05:29:47;6.20;;;4.22;;
60494;SDS011;46342;49.046;11.920;2023-06-10T05:32:13;5.97;;;4.18;;
60494;SDS011;46342;49.046;11.920;2023-06-10T05:34:39;5.55;;;4.05;;
60494;SDS011;46342;49.046;11.920;2023-06-10T05:37:04;5.47;;;4.15;;
60494;SDS011;46342;49.046;11.920;2023-06-10T05:39:30;4.35;;;3.60;;
60494;SDS011;46342;49.046;11.920;2023-06-10T05:41:57;3.15;;;2.85;;
60494;SDS011;46342;49.046;11.920;2023-06-10T05:44:24;3.90;;;3.28;;
60494;SDS011;46342;49.046;11.920;2023-06-10T05:46:50;5.47;;;4.20;;
60494;SDS011;46342;49.046;11.920;2023-06-10T05:49:16;5.32;;;4.10;;
60494;SDS011;46342;49.046;11.920;2023-06-10T05:51:41;5.55;;;4.03;;
60494;SDS011;46342;49.046;11.920;2023-06-10T05:54:07;5.28;;;4.18;;
60494;SDS011;46342;49.046;11.920;2023-06-10T05:56:32;5.95;;;4.55;;
60494;SDS011;46342;49.046;11.920;2023-06-10T05:58:58;5.65;;;4.18;;
60494;SDS011;46342;49.046;11.920;2023-06-10T06:01:24;7.15;;;3.80;;
60494;SDS011;46342;49.046;11.920;2023-06-10T06:03:49;5.22;;;4.00;;
60494;SDS011;46342;49.046;11.920;2023-06-10T06:06:15;5.35;;;3.65;;
60494;SDS011;46342;49.046;11.920;2023-06-10T06:08:40;4.90;;;3.97;;
60494;SDS011;46342;49.046;11.920;2023-06-10T06:11:06;4.00;;;3.60;;
60494;SDS011;46342;49.046;11.920;2023-06-10T06:13:31;5.13;;;4.00;;
60494;SDS011;46342;49.046;11.920;2023-06-10T06:15:57;6.40;;;3.97;;
60494;SDS011;46342;49.046;11.920;2023-06-10T06:18:22;5.20;;;3.60;;
60494;SDS011;46342;49.046;11.920;2023-06-10T06:20:49;4.55;;;3.75;;
60494;SDS011;46342;49.046;11.920;2023-06-10T06:23:15;4.28;;;3.63;;
60494;SDS011;46342;49.046;11.920;2023-06-10T06:25:40;4.43;;;4.00;;
60494;SDS011;46342;49.046;11.920;2023-06-10T06:28:06;5.28;;;3.83;;
60494;SDS011;46342;49.046;11.920;2023-06-10T06:30:33;4.95;;;3.97;;
60494;SDS011;46342;49.046;11.920;2023-06-10T06:32:59;4.22;;;3.67;;
60494;SDS011;46342;49.046;11.920;2023-06-10T06:35:25;4.28;;;3.58;;
60494;SDS011;46342;49.046;11.920;2023-06-10T06:37:50;4.38;;;3.92;;
60494;SDS011;46342;49.046;11.920;2023-06-10T06:40:16;4.75;;;3.58;;
60494;SDS011;46342;49.046;11.920;2023-06-10T06:42:41;5.22;;;3.47;;
60494;SDS011;46342;49.046;11.920;2023-06-10T06:45:07;3.78;;;3.33;;
60494;SDS011;46342;49.046;11.920;2023-06-10T06:47:33;3.90;;;3.50;;
60494;SDS011;46342;49.046;11.920;2023-06-10T06:49:58;4.93;;;3.33;;
60494;SDS011;46342;49.046;11.920;2023-06-10T06:52:24;3.33;;;3.00;;
60494;SDS011;46342;49.046;11.920;2023-06-10T06:54:50;4.28;;;3.38;;
60494;SDS011;46342;49.046;11.920;2023-06-10T06:57:15;4.50;;;3.35;;
60494;SDS011;46342;49.046;11.920;2023-06-10T06:59:41;3.88;;;3.50;;
60494;SDS011;46342;49.046;11.920;2023-06-10T07:02:07;5.20;;;3.33;;
60494;SDS011;46342;49.046;11.920;2023-06-10T07:04:32;4.68;;;3.95;;
60494;SDS011;46342;49.046;11.920;2023-06-10T07:06:58;5.00;;;4.00;;
60494;SDS011;46342;49.046;11.920;2023-06-10T07:09:23;6.55;;;4.55;;
60494;SDS011;46342;49.046;11.920;2023-06-10T07:11:49;7.57;;;4.65;;
60494;SDS011;46342;49.046;11.920;2023-06-10T07:14:14;6.30;;;5.03;;
60494;SDS011;46342;49.046;11.920;2023-06-10T07:16:40;5.18;;;4.22;;
60494;SDS011;46342;49.046;11.920;2023-06-10T07:19:05;5.65;;;4.07;;
60494;SDS011;46342;49.046;11.920;2023-06-10T07:21:31;6.28;;;4.25;;
60494;SDS011;46342;49.046;11.920;2023-06-10T07:23:57;4.32;;;3.78;;
60494;SDS011;46342;49.046;11.920;2023-06-10T07:26:23;5.25;;;3.58;;
60494;SDS011;46342;49.046;11.920;2023-06-10T07:28:49;6.45;;;3.95;;
60494;SDS011;46342;49.046;11.920;2023-06-10T07:31:14;4.63;;;4.15;;
60494;SDS011;46342;49.046;11.920;2023-06-10T07:33:40;4.18;;;3.75;;
60494;SDS011;46342;49.046;11.920;2023-06-10T07:36:06;5.88;;;3.63;;
60494;SDS011;46342;49.046;11.920;2023-06-10T07:38:32;4.10;;;3.70;;
60494;SDS011;46342;49.046;11.920;2023-06-10T07:40:57;6.55;;;4.00;;
60494;SDS011;46342;49.046;11.920;2023-06-10T07:43:23;5.00;;;3.55;;
60494;SDS011;46342;49.046;11.920;2023-06-10T07:45:49;5.68;;;3.75;;
60494;SDS011;46342;49.046;11.920;2023-06-10T07:48:15;3.88;;;3.50;;
60494;SDS011;46342;49.046;11.920;2023-06-10T07:50:41;4.30;;;3.53;;
60494;SDS011;46342;49.046;11.920;2023-06-10T07:53:06;3.78;;;3.38;;
60494;SDS011;46342;49.046;11.920;2023-06-10T07:55:32;4.57;;;3.50;;
60494;SDS011;46342;49.046;11.920;2023-06-10T07:57:58;4.10;;;3.70;;
60494;SDS011;46342;49.046;11.920;2023-06-10T08:00:23;4.13;;;3.72;;
60494;SDS011;46342;49.046;11.920;2023-06-10T08:02:49;4.80;;;3.95;;
60494;SDS011;46342;49.046;11.920;2023-06-10T08:05:15;3.85;;;3.38;;
60494;SDS011;46342;49.046;11.920;2023-06-10T08:07:41;4.22;;;3.55;;
60494;SDS011;46342;49.046;11.920;2023-06-10T08:10:07;5.25;;;3.67;;
60494;SDS011;46342;49.046;11.920;2023-06-10T08:12:33;3.83;;;3.42;;
60494;SDS011;46342;49.046;11.920;2023-06-10T08:15:00;3.30;;;3.00;;
60494;SDS011;46342;49.046;11.920;2023-06-10T08:17:26;3.80;;;3.33;;
60494;SDS011;46342;49.046;11.920;2023-06-10T08:19:51;3.45;;;3.15;;
60494;SDS011;46342;49.046;11.920;2023-06-10T08:22:17;3.47;;;3.17;;
60494;SDS011;46342;49.046;11.920;2023-06-10T08:24:43;4.00;;;3.60;;
60494;SDS011;46342;49.046;11.920;2023-06-10T08:27:08;3.85;;;3.42;;
60494;SDS011;46342;49.046;11.920;2023-06-10T08:29:35;4.07;;;3.67;;
60494;SDS011;46342;49.046;11.920;2023-06-10T08:32:00;4.82;;;4.32;;
60494;SDS011;46342;49.046;11.920;2023-06-10T08:34:26;4.03;;;3.50;;
60494;SDS011;46342;49.046;11.920;2023-06-10T08:36:52;4.90;;;3.80;;
60494;SDS011;46342;49.046;11.920;2023-06-10T08:39:20;3.00;;;2.72;;
60494;SDS011;46342;49.046;11.920;2023-06-10T08:41:54;3.20;;;2.90;;
60494;SDS011;46342;49.046;11.920;2023-06-10T08:44:28;3.58;;;3.28;;
60494;SDS011;46342;49.046;11.920;2023-06-10T08:46:58;4.15;;;3.53;;
60494;SDS011;46342;49.046;11.920;2023-06-10T08:49:25;4.13;;;3.22;;
60494;SDS011;46342;49.046;11.920;2023-06-10T08:51:54;5.28;;;3.85;;
60494;SDS011;46342;49.046;11.920;2023-06-10T08:54:26;3.85;;;3.53;;
60494;SDS011;46342;49.046;11.920;2023-06-10T08:56:56;3.72;;;3.28;;
60494;SDS011;46342;49.046;11.920;2023-06-10T08:59:25;3.28;;;2.97;;
60494;SDS011;46342;49.046;11.920;2023-06-10T09:01:52;4.10;;;3.63;;
60494;SDS011;46342;49.046;11.920;2023-06-10T09:04:18;3.55;;;3.25;;
60494;SDS011;46342;49.046;11.920;2023-06-10T09:06:45;3.70;;;3.40;;
60494;SDS011;46342;49.046;11.920;2023-06-10T09:09:11;3.28;;;2.97;;
60494;SDS011;46342;49.046;11.920;2023-06-10T09:11:39;3.42;;;3.13;;
60494;SDS011;46342;49.046;11.920;2023-06-10T09:14:07;3.58;;;3.28;;
60494;SDS011;46342;49.046;11.920;2023-06-10T09:16:32;3.90;;;3.55;;
60494;SDS011;46342;49.046;11.920;2023-06-10T09:18:58;3.40;;;3.10;;
60494;SDS011;46342;49.046;11.920;2023-06-10T09:21:24;4.10;;;3.63;;
60494;SDS011;46342;49.046;11.920;2023-06-10T09:23:50;4.28;;;3.63;;
60494;SDS011;46342;49.046;11.920;2023-06-10T09:26:16;3.70;;;3.38;;
60494;SDS011;46342;49.046;11.920;2023-06-10T09:28:48;3.28;;;2.97;;
60494;SDS011;46342;49.046;11.920;2023-06-10T09:31:15;3.13;;;2.58;;
60494;SDS011;46342;49.046;11.920;2023-06-10T09:33:44;3.30;;;3.00;;
60494;SDS011;46342;49.046;11.920;2023-06-10T09:36:09;3.65;;;3.35;;
60494;SDS011;46342;49.046;11.920;2023-06-10T09:38:36;4.45;;;3.25;;
60494;SDS011;46342;49.046;11.920;2023-06-10T09:41:02;3.60;;;3.08;;
60494;SDS011;46342;49.046;11.920;2023-06-10T09:43:42;3.38;;;3.08;;
60494;SDS011;46342;49.046;11.920;2023-06-10T09:46:16;5.07;;;3.25;;
60494;SDS011;46342;49.046;11.920;2023-06-10T09:48:43;5.38;;;3.10;;
60494;SDS011;46342;49.046;11.920;2023-06-10T09:51:11;3.22;;;2.92;;
60494;SDS011;46342;49.046;11.920;2023-06-10T09:53:37;4.43;;;3.03;;
60494;SDS011;46342;49.046;11.920;2023-06-10T09:56:03;3.30;;;3.00;;
60494;SDS011;46342;49.046;11.920;2023-06-10T09:58:35;3.38;;;2.97;;
60494;SDS011;46342;49.046;11.920;2023-06-10T10:01:05;4.07;;;3.67;;
60494;SDS011;46342;49.046;11.920;2023-06-10T10:06:54;4.45;;;3.50;;
60494;SDS011;46342;49.046;11.920;2023-06-10T10:09:20;4.38;;;3.25;;
60494;SDS011;46342;49.046;11.920;2023-06-10T10:11:46;3.05;;;2.78;;
60494;SDS011;46342;49.046;11.920;2023-06-10T10:17:46;3.22;;;2.92;;
60494;SDS011;46342;49.046;11.920;2023-06-10T10:26:18;3.50;;;2.65;;
60494;SDS011;46342;49.046;11.920;2023-06-10T10:28:48;4.90;;;3.22;;
60494;SDS011;46342;49.046;11.920;2023-06-10T10:31:36;3.38;;;3.08;;
60494;SDS011;46342;49.046;11.920;2023-06-10T10:37:26;3.42;;;3.13;;
60494;SDS011;46342;49.046;11.920;2023-06-10T10:39:52;4.05;;;3.55;;
60494;SDS011;46342;49.046;11.920;2023-06-10T10:42:18;3.55;;;3.25;;
60494;SDS011;46342;49.046;11.920;2023-06-10T10:44:44;4.60;;;3.47;;
60494;SDS011;46342;49.046;11.920;2023-06-10T10:47:11;3.50;;;3.20;;
60494;SDS011;46342;49.046;11.920;2023-06-10T10:49:38;3.60;;;3.17;;
60494;SDS011;46342;49.046;11.920;2023-06-10T10:52:10;3.40;;;3.10;;
60494;SDS011;46342;49.046;11.920;2023-06-10T10:54:37;4.30;;;3.90;;
60494;SDS011;46342;49.046;11.920;2023-06-10T10:57:18;3.95;;;3.55;;
60494;SDS011;46342;49.046;11.920;2023-06-10T11:00:06;3.63;;;3.33;;
60494;SDS011;46342;49.046;11.920;2023-06-10T11:02:35;4.00;;;3.57;;
60494;SDS011;46342;49.046;11.920;2023-06-10T11:05:02;4.00;;;3.60;;
60494;SDS011;46342;49.046;11.920;2023-06-10T11:07:30;3.80;;;3.50;;
60494;SDS011;46342;49.046;11.920;2023-06-10T11:10:09;4.03;;;3.70;;
60494;SDS011;46342;49.046;11.920;2023-06-10T11:15:11;4.20;;;3.80;;
60494;SDS011;46342;49.046;11.920;2023-06-10T11:17:37;4.78;;;3.67;;
60494;SDS011;46342;49.046;11.920;2023-06-10T11:26:10;3.70;;;3.03;;
60494;SDS011;46342;49.046;11.920;2023-06-10T11:28:40;5.18;;;4.35;;
60494;SDS011;46342;49.046;11.920;2023-06-10T11:31:06;4.40;;;4.05;;
60494;SDS011;46342;49.046;11.920;2023-06-10T11:33:33;4.63;;;4.22;;
60494;SDS011;46342;49.046;11.920;2023-06-10T11:36:06;4.63;;;3.70;;
60494;SDS011;46342;49.046;11.920;2023-06-10T11:38:32;4.30;;;3.90;;
60494;SDS011;46342;49.046;11.920;2023-06-10T11:40:58;4.38;;;3.97;;
60494;SDS011;46342;49.046;11.920;2023-06-10T11:43:24;4.93;;;4.38;;
60494;SDS011;46342;49.046;11.920;2023-06-10T11:45:53;5.05;;;4.55;;
60494;SDS011;46342;49.046;11.920;2023-06-10T11:48:20;5.05;;;4.53;;
60494;SDS011;46342;49.046;11.920;2023-06-10T11:54:08;4.70;;;4.00;;
60494;SDS011;46342;49.046;11.920;2023-06-10T11:56:34;4.43;;;4.00;;
60494;SDS011;46342;49.046;11.920;2023-06-10T11:59:01;4.53;;;4.00;;
60494;SDS011;46342;49.046;11.920;2023-06-10T12:01:32;4.05;;;3.63;;
60494;SDS011;46342;49.046;11.920;2023-06-10T12:06:45;4.22;;;3.83;;
60494;SDS011;46342;49.046;11.920;2023-06-10T12:11:41;4.68;;;4.10;;
60494;SDS011;46342;49.046;11.920;2023-06-10T12:14:08;4.88;;;4.38;;
60494;SDS011;46342;49.046;11.920;2023-06-10T12:16:34;5.82;;;3.95;;
60494;SDS011;46342;49.046;11.920;2023-06-10T12:19:03;4.20;;;3.60;;
60494;SDS011;46342;49.046;11.920;2023-06-10T12:21:31;4.47;;;3.90;;
60494;SDS011;46342;49.046;11.920;2023-06-10T12:24:04;4.50;;;4.10;;
60494;SDS011;46342;49.046;11.920;2023-06-10T12:26:38;5.10;;;4.57;;
60494;SDS011;46342;49.046;11.920;2023-06-10T12:29:38;4.63;;;4.20;;
60494;SDS011;46342;49.046;11.920;2023-06-10T12:31:58;4.40;;;4.00;;
60494;SDS011;46342;49.046;11.920;2023-06-10T12:34:31;4.25;;;3.85;;
60494;SDS011;46342;49.046;11.920;2023-06-10T12:37:02;4.00;;;3.60;;
60494;SDS011;46342;49.046;11.920;2023-06-10T12:39:29;4.05;;;3.72;;
60494;SDS011;46342;49.046;11.920;2023-06-10T12:44:31;4.18;;;3.78;;
60494;SDS011;46342;49.046;11.920;2023-06-10T12:46:59;3.90;;;3.60;;
60494;SDS011;46342;49.046;11.920;2023-06-10T12:49:25;4.35;;;3.95;;
60494;SDS011;46342;49.046;11.920;2023-06-10T12:51:51;6.45;;;4.30;;
60494;SDS011;46342;49.046;11.920;2023-06-10T12:54:17;4.30;;;3.90;;
60494;SDS011;46342;49.046;11.920;2023-06-10T12:56:43;4.60;;;3.63;;
60494;SDS011;46342;49.046;11.920;2023-06-10T12:59:08;4.75;;;4.35;;
60494;SDS011;46342;49.046;11.920;2023-06-10T13:01:34;4.97;;;3.97;;
60494;SDS011;46342;49.046;11.920;2023-06-10T13:04:00;4.32;;;3.92;;
60494;SDS011;46342;49.046;11.920;2023-06-10T13:06:27;5.33;;;4.00;;
60494;SDS011;46342;49.046;11.920;2023-06-10T13:08:53;2.95;;;2.75;;
60494;SDS011;46342;49.046;11.920;2023-06-10T13:11:19;3.80;;;3.38;;
60494;SDS011;46342;49.046;11.920;2023-06-10T13:13:44;3.95;;;3.05;;
60494;SDS011;46342;49.046;11.920;2023-06-10T13:16:11;3.45;;;3.15;;
60494;SDS011;46342;49.046;11.920;2023-06-10T13:18:36;4.28;;;3.33;;
60494;SDS011;46342;49.046;11.920;2023-06-10T13:21:03;4.80;;;3.40;;
60494;SDS011;46342;49.046;11.920;2023-06-10T13:23:29;3.47;;;3.17;;
60494;SDS011;46342;49.046;11.920;2023-06-10T13:25:56;3.20;;;2.90;;
60494;SDS011;46342;49.046;11.920;2023-06-10T13:28:22;3.17;;;2.92;;
60494;SDS011;46342;49.046;11.920;2023-06-10T13:30:48;2.80;;;2.60;;
60494;SDS011;46342;49.046;11.920;2023-06-10T13:33:13;3.50;;;2.92;;
60494;SDS011;46342;49.046;11.920;2023-06-10T13:35:39;3.28;;;2.95;;
60494;SDS011;46342;49.046;11.920;2023-06-10T13:38:06;3.35;;;3.05;;
60494;SDS011;46342;49.046;11.920;2023-06-10T13:40:32;6.30;;;2.70;;
60494;SDS011;46342;49.046;11.920;2023-06-10T13:42:57;2.70;;;2.50;;
60494;SDS011;46342;49.046;11.920;2023-06-10T13:45:23;2.63;;;2.42;;
60494;SDS011;46342;49.046;11.920;2023-06-10T13:47:49;2.95;;;2.65;;
60494;SDS011;46342;49.046;11.920;2023-06-10T13:50:15;4.35;;;2.78;;
60494;SDS011;46342;49.046;11.920;2023-06-10T13:52:40;2.78;;;2.58;;
60494;SDS011;46342;49.046;11.920;2023-06-10T13:55:06;2.90;;;2.70;;
60494;SDS011;46342;49.046;11.920;2023-06-10T13:57:32;3.80;;;2.55;;
60494;SDS011;46342;49.046;11.920;2023-06-10T13:59:58;5.22;;;2.67;;
60494;SDS011;46342;49.046;11.920;2023-06-10T14:02:23;4.97;;;3.42;;
60494;SDS011;46342;49.046;11.920;2023-06-10T14:04:49;6.28;;;3.22;;
60494;SDS011;46342;49.046;11.920;2023-06-10T14:07:14;3.40;;;3.10;;
60494;SDS011;46342;49.046;11.920;2023-06-10T14:09:40;3.70;;;2.47;;
60494;SDS011;46342;49.046;11.920;2023-06-10T14:12:06;4.82;;;2.95;;
60494;SDS011;46342;49.046;11.920;2023-06-10T14:14:32;3.20;;;2.38;;
60494;SDS011;46342;49.046;11.920;2023-06-10T14:16:58;4.38;;;3.03;;
60494;SDS011;46342;49.046;11.920;2023-06-10T14:19:24;4.85;;;2.88;;
60494;SDS011;46342;49.046;11.920;2023-06-10T14:21:50;2.50;;;2.30;;
60494;SDS011;46342;49.046;11.920;2023-06-10T14:24:15;3.30;;;3.00;;
60494;SDS011;46342;49.046;11.920;2023-06-10T14:26:41;3.10;;;2.80;;
60494;SDS011;46342;49.046;11.920;2023-06-10T14:29:06;3.58;;;3.22;;
60494;SDS011;46342;49.046;11.920;2023-06-10T14:31:33;3.72;;;3.38;;
60494;SDS011;46342;49.046;11.920;2023-06-10T14:33:59;3.47;;;3.17;;
60494;SDS011;46342;49.046;11.920;2023-06-10T14:36:24;5.13;;;3.75;;
60494;SDS011;46342;49.046;11.920;2023-06-10T14:38:50;5.25;;;3.97;;
60494;SDS011;46342;49.046;11.920;2023-06-10T14:41:16;5.03;;;4.22;;
60494;SDS011;46342;49.046;11.920;2023-06-10T14:43:41;5.45;;;3.03;;
60494;SDS011;46342;49.046;11.920;2023-06-10T14:46:07;4.40;;;3.80;;
60494;SDS011;46342;49.046;11.920;2023-06-10T14:48:32;3.63;;;3.05;;
60494;SDS011;46342;49.046;11.920;2023-06-10T14:50:58;4.00;;;3.70;;
60494;SDS011;46342;49.046;11.920;2023-06-10T14:53:24;4.45;;;3.92;;
60494;SDS011;46342;49.046;11.920;2023-06-10T14:55:49;8.05;;;3.97;;
60494;SDS011;46342;49.046;11.920;2023-06-10T14:58:15;3.95;;;3.33;;
60494;SDS011;46342;49.046;11.920;2023-06-10T15:00:41;3.70;;;3.28;;
60494;SDS011;46342;49.046;11.920;2023-06-10T15:03:06;3.85;;;3.33;;
60494;SDS011;46342;49.046;11.920;2023-06-10T15:05:32;3.45;;;3.10;;
60494;SDS011;46342;49.046;11.920;2023-06-10T15:07:59;10.50;;;3.22;;
60494;SDS011;46342;49.046;11.920;2023-06-10T15:10:25;3.80;;;3.50;;
60494;SDS011;46342;49.046;11.920;2023-06-10T15:12:50;3.67;;;3.38;;